Gillette, WY

11:58 AM MDT on September 16, 2014 (GMT -0600)
Johnson County | Change Station
CLOSE
Current Station
Airport
Location: Buffalo,
Elevation: 4967 ft
Nearby Weather Stations

Elev 4967 ft 44.38 °N, 106.72 °W | Updated 5 minutes ago

Clear
Clear
78 °F
Feels Like 78 °F
N
0
Wind Variable Wind from North

Today
High -- | Low -- °F
--% Chance of Precip.
Yesterday
High -- | Low -- °F
Precip. -- in
6:42 AM 7:11 PM
Last Quarter, 44% visible
Pressure 29.94 in
Visibility 10.0 miles
Clouds Clear
Dew Point 42 °F
Humidity 28%
Rainfall 0.00 in
Snow Depth 3 in , 0 in , 0 in
UV 7 out of 12
Pollen 5.90 out of 12
Air Quality Not available.
Flu Activity Not available.
METAR KBYG 161753Z AUTO 00000KT 10SM CLR 26/06 A3009 RMK AO2 SLP138 T02560056 10256 20122 58008

More Conditions Fewer Conditions

Pressure 29.94 in
Visibility 10.0 miles
Clouds Clear
Dew Point 42 °F
Humidity 28%
Rainfall 0.00 in
Snow Depth 3 in , 0 in , 0 in
UV 7 out of 12
Pollen 5.90 out of 12
Air Quality Not available.
Flu Activity Not available.
METAR KBYG 161753Z AUTO 00000KT 10SM CLR 26/06 A3009 RMK AO2 SLP138 T02560056 10256 20122 58008

More Conditions Fewer Conditions

10-Day Weather Forecast

Almanac

Astronomy

Sep. 16, 2014 Rise Set
Actual Time 6:42 AM MDT 7:11 PM MDT
Civil Twilight 6:13 AM MDT 7:40 PM MDT
Nautical Twilight 5:38 AM MDT 8:14 PM MDT
Astronomical Twilight 5:03 AM MDT 8:50 PM MDT
Moon No Moon Rise 2:47 PM MDT
Length of Visible Light 13h 26m
Length of Day
12h 28m
Tomorrow will be 3m 3s shorter.
Last Quarter, 44% of the Moon is Illuminated
Today
Last Quarter
Sep 24
New
Oct 1
First Quarter
Oct 8
Full
Oct 15
Last Quarter

Today's Extremes

State Highs State Lows

Community

WunderPhotos

Upload Photos

1,753,843 photos uploaded!

Nearby

Snow Depth

Station Depth Elevation
New Fork Lake 3 in 8340 ft
Cinnabar Park 0 in 9690 ft
Thumb Divide 0 in 7980 ft
Phillips Bench 0 in 8200 ft
Salt River Summit 0 in 7600 ft

Earthquake Activity

City Distance Mag. Time & Date
No recent earthquake activity has been reported nearby.
Minimum magnitude displayed is 2.5.

Coastal Water Temperatures

Place Temperature
No Stations Reporting

Nearby Weather Stations